createdAt,value
2018-12-04T00:00:09.039Z,96822.07
2018-12-04T00:02:37.629Z,96815.66
2018-12-04T00:05:06.167Z,96817.86
2018-12-04T00:07:34.672Z,96802.81
2018-12-04T00:10:03.834Z,96804.49
2018-12-04T00:12:32.299Z,96791.53
2018-12-04T00:15:00.779Z,96783.36
2018-12-04T00:17:29.246Z,96804.03
2018-12-04T00:19:58.096Z,96815.97
2018-12-04T00:22:26.577Z,96815.69
2018-12-04T00:24:55.027Z,96808.34
2018-12-04T00:27:23.737Z,96813.66
2018-12-04T00:29:52.237Z,96813.08
2018-12-04T00:32:20.703Z,96810.08
2018-12-04T00:34:49.120Z,96807.64
2018-12-04T00:37:17.639Z,96827.52
2018-12-04T00:39:46.148Z,96831.43
2018-12-04T00:42:14.600Z,96853.41
2018-12-04T00:44:43.074Z,96877.08
2018-12-04T00:47:11.522Z,96886.13
2018-12-04T00:49:39.983Z,96896.88
2018-12-04T00:52:08.488Z,96902.02
2018-12-04T00:54:36.946Z,96908.02
2018-12-04T00:57:05.413Z,96907.98
2018-12-04T00:59:33.907Z,96919.13
2018-12-04T01:02:02.460Z,96927.70
2018-12-04T01:04:30.981Z,96924.23
2018-12-04T01:06:59.472Z,96900.63
2018-12-04T01:09:27.969Z,96926.72
2018-12-04T01:11:56.417Z,96906.34
2018-12-04T01:14:24.913Z,96917.06
2018-12-04T01:16:53.364Z,96897.59
2018-12-04T01:19:23.526Z,96910.36
2018-12-04T01:21:51.967Z,96988.52
2018-12-04T01:24:20.473Z,97006.69
2018-12-04T01:26:49.542Z,97000.61
2018-12-04T01:29:18.009Z,96996.20
2018-12-04T01:31:46.687Z,96995.25
2018-12-04T01:34:15.141Z,97009.88
2018-12-04T01:36:43.602Z,97004.61
2018-12-04T01:39:12.050Z,97016.47
2018-12-04T01:41:42.615Z,97015.78
2018-12-04T01:44:11.103Z,97019.12
2018-12-04T01:46:39.575Z,97037.88
2018-12-04T01:49:07.996Z,97026.22
2018-12-04T01:51:36.531Z,97022.06
2018-12-04T01:54:04.943Z,97003.55
2018-12-04T01:56:33.383Z,96992.80
2018-12-04T01:59:01.867Z,96987.16
2018-12-04T02:01:30.325Z,96974.61
2018-12-04T02:04:00.779Z,96946.08
2018-12-04T02:06:29.243Z,96934.34
2018-12-04T02:08:57.668Z,96926.08
2018-12-04T02:11:26.072Z,96909.13
2018-12-04T02:13:54.540Z,96909.39
2018-12-04T02:16:22.983Z,96928.48
2018-12-04T02:18:51.452Z,96954.88
2018-12-04T02:21:19.928Z,96965.70
2018-12-04T02:23:48.625Z,96961.04
2018-12-04T02:26:17.357Z,96965.47
2018-12-04T02:28:48.783Z,96962.52
2018-12-04T02:31:17.268Z,96963.81
2018-12-04T02:33:45.688Z,96954.80
2018-12-04T02:36:14.153Z,96960.43
2018-12-04T02:38:42.579Z,96960.02
2018-12-04T02:41:11.067Z,96969.09
2018-12-04T02:43:39.890Z,96966.03
2018-12-04T02:46:08.311Z,96971.27
2018-12-04T02:48:36.726Z,96959.72
2018-12-04T02:51:05.227Z,96961.92
2018-12-04T02:53:35.342Z,96966.70
2018-12-04T02:56:03.761Z,96962.54
2018-12-04T02:58:32.224Z,96968.19
2018-12-04T03:01:00.654Z,96960.47
2018-12-04T03:03:29.190Z,96960.58
2018-12-04T03:05:57.681Z,96968.87
2018-12-04T03:08:26.120Z,96968.84
2018-12-04T03:10:55.032Z,96973.20
2018-12-04T03:13:23.577Z,96973.66
2018-12-04T03:15:52.084Z,96974.56
2018-12-04T03:18:20.524Z,96984.52
2018-12-04T03:20:49.084Z,96988.38
2018-12-04T03:23:17.812Z,96975.59
2018-12-04T03:25:46.271Z,96978.06
2018-12-04T03:28:15.083Z,96987.57
2018-12-04T03:30:43.549Z,96995.81
2018-12-04T03:33:16.322Z,96989.77
2018-12-04T03:35:44.772Z,96990.23
2018-12-04T03:38:13.486Z,96982.46
2018-12-04T03:40:41.985Z,96986.79
2018-12-04T03:43:10.808Z,96991.97
2018-12-04T03:45:39.698Z,96998.05
2018-12-04T03:48:08.163Z,96813.64
2018-12-04T03:50:38.603Z,96992.45
2018-12-04T03:53:07.129Z,96997.64
2018-12-04T03:55:35.646Z,97002.41
2018-12-04T03:58:04.224Z,97008.53
2018-12-04T04:00:32.814Z,97017.95
2018-12-04T04:03:01.319Z,97012.41
2018-12-04T04:05:29.744Z,97016.34
2018-12-04T04:07:58.206Z,97008.20
2018-12-04T04:10:26.711Z,96998.27
2018-12-04T04:12:55.143Z,97010.37
2018-12-04T04:15:23.612Z,97005.67
2018-12-04T04:17:52.111Z,97020.39
2018-12-04T04:20:20.590Z,97003.52
2018-12-04T04:22:49.176Z,97010.03
2018-12-04T04:25:17.657Z,97012.27
2018-12-04T04:27:46.130Z,97017.47
2018-12-04T04:30:14.850Z,97025.23
2018-12-04T04:32:43.336Z,97011.39
2018-12-04T04:35:12.024Z,97017.42
2018-12-04T04:37:40.732Z,97025.61
2018-12-04T04:40:09.569Z,97013.05
2018-12-04T04:42:38.257Z,97035.13
2018-12-04T04:45:06.863Z,97033.32
2018-12-04T04:47:35.353Z,97037.72
2018-12-04T04:50:04.147Z,97047.70
2018-12-04T04:52:32.606Z,97045.50
2018-12-04T04:55:01.108Z,97043.41
2018-12-04T04:57:29.549Z,97051.66
2018-12-04T04:59:58.106Z,96942.30
2018-12-04T05:02:26.600Z,97076.27
2018-12-04T05:04:55.097Z,97069.45
2018-12-04T05:07:23.572Z,97087.98
2018-12-04T05:09:52.078Z,97090.14
2018-12-04T05:12:20.510Z,97092.80
2018-12-04T05:14:48.939Z,97103.17
2018-12-04T05:17:17.583Z,97102.77
2018-12-04T05:19:46.059Z,97102.79
2018-12-04T05:22:14.885Z,97105.43
2018-12-04T05:24:43.388Z,97120.13
2018-12-04T05:27:13.443Z,97112.80
2018-12-04T05:29:42.168Z,97114.08
2018-12-04T05:32:10.657Z,97102.45
2018-12-04T05:34:39.151Z,97111.97
2018-12-04T05:37:08.003Z,97132.23
2018-12-04T05:39:36.500Z,97128.77
2018-12-04T05:42:04.987Z,97136.58
2018-12-04T05:44:33.471Z,97133.15
2018-12-04T05:47:01.978Z,97137.91
2018-12-04T05:49:30.452Z,97152.97
2018-12-04T05:52:00.556Z,97148.61
2018-12-04T05:54:29.048Z,97158.14
2018-12-04T05:56:57.489Z,97164.61
2018-12-04T05:59:25.959Z,97159.43
2018-12-04T06:01:54.456Z,97167.23
2018-12-04T06:04:22.950Z,97170.27
2018-12-04T06:06:51.406Z,97165.55
2018-12-04T06:09:19.924Z,97188.79
2018-12-04T06:11:48.412Z,97188.39
2018-12-04T06:14:16.912Z,96982.95
2018-12-04T06:16:45.448Z,97209.98
2018-12-04T06:19:13.935Z,97200.06
2018-12-04T06:21:42.440Z,97208.23
2018-12-04T06:24:10.928Z,97212.95
2018-12-04T06:26:39.407Z,97210.81
2018-12-04T06:29:07.881Z,97230.59
2018-12-04T06:31:36.422Z,97230.11
2018-12-04T06:34:05.024Z,97242.22
2018-12-04T06:36:33.502Z,97248.11
2018-12-04T06:39:01.985Z,97240.66
2018-12-04T06:41:30.440Z,97243.70
2018-12-04T06:43:58.935Z,97242.98
2018-12-04T06:46:27.424Z,97238.69
2018-12-04T06:48:55.855Z,97245.36
2018-12-04T06:51:24.317Z,97247.94
2018-12-04T06:53:52.833Z,97265.11
2018-12-04T06:56:21.274Z,97261.09
2018-12-04T06:58:49.999Z,97256.75
2018-12-04T07:01:18.602Z,97269.44
2018-12-04T07:03:47.022Z,97272.88
2018-12-04T07:06:16.504Z,97276.50
2018-12-04T07:08:44.964Z,97281.75
2018-12-04T07:11:13.632Z,97287.59
2018-12-04T07:13:42.096Z,97295.52
2018-12-04T07:16:10.561Z,97299.09
2018-12-04T07:18:39.071Z,97294.36
2018-12-04T07:21:07.557Z,97291.69
2018-12-04T07:23:36.088Z,97294.66
2018-12-04T07:26:04.849Z,97295.95
2018-12-04T07:28:33.571Z,97306.28
2018-12-04T07:31:02.046Z,97300.58
2018-12-04T07:33:30.787Z,97297.89
2018-12-04T07:35:59.463Z,97308.55
2018-12-04T07:38:28.003Z,97318.08
2018-12-04T07:40:56.842Z,97325.80
2018-12-04T07:43:25.305Z,97329.94
2018-12-04T07:45:53.820Z,97329.95
2018-12-04T07:48:24.214Z,97325.03
2018-12-04T07:50:52.696Z,97332.14
2018-12-04T07:53:21.240Z,97328.49
2018-12-04T07:55:49.736Z,97328.38
2018-12-04T07:58:18.176Z,97343.19
2018-12-04T08:00:46.684Z,97345.50
2018-12-04T08:03:15.154Z,97338.94
2018-12-04T08:05:43.642Z,97348.43
2018-12-04T08:08:12.140Z,97360.45
2018-12-04T08:10:42.579Z,97355.17
2018-12-04T08:13:11.280Z,97344.17
2018-12-04T08:15:39.849Z,97345.55
2018-12-04T08:18:08.929Z,97353.39
2018-12-04T08:20:39.679Z,97348.95
2018-12-04T08:23:08.387Z,97351.70
2018-12-04T08:25:36.835Z,97356.92
2018-12-04T08:28:05.269Z,97353.79
2018-12-04T08:30:33.784Z,97345.52
2018-12-04T08:33:02.244Z,97343.05
2018-12-04T08:35:30.710Z,97358.74
2018-12-04T08:37:59.322Z,97365.89
2018-12-04T08:40:27.796Z,97373.48
2018-12-04T08:42:59.677Z,97374.27
2018-12-04T08:45:28.193Z,97374.38
2018-12-04T08:47:56.675Z,97368.36
2018-12-04T08:50:25.156Z,97369.80
2018-12-04T08:52:53.647Z,97382.08
2018-12-04T08:55:22.770Z,97381.92
2018-12-04T08:57:51.477Z,97367.01
2018-12-04T09:00:20.343Z,97378.33
2018-12-04T09:02:50.572Z,97392.85
2018-12-04T09:05:19.197Z,97392.40
2018-12-04T09:07:47.802Z,97397.17
2018-12-04T09:10:16.276Z,97401.93
2018-12-04T09:12:44.780Z,97397.00
2018-12-04T09:15:13.265Z,97398.65
2018-12-04T09:17:41.724Z,97405.08
2018-12-04T09:20:10.237Z,97406.28
2018-12-04T09:22:38.834Z,97402.47
2018-12-04T09:25:07.415Z,97392.17
2018-12-04T09:27:35.949Z,97384.45
2018-12-04T09:30:07.776Z,97384.08
2018-12-04T09:32:36.537Z,97390.62
2018-12-04T09:35:07.150Z,97375.64
2018-12-04T09:37:35.664Z,97365.03
2018-12-04T09:40:05.660Z,97373.69
2018-12-04T09:42:34.146Z,97375.05
2018-12-04T09:45:02.648Z,97372.05
2018-12-04T09:47:33.045Z,97363.40
2018-12-04T09:50:01.479Z,97366.80
2018-12-04T09:52:29.976Z,97370.16
2018-12-04T09:54:58.428Z,97366.88
2018-12-04T09:57:26.900Z,97357.85
2018-12-04T09:59:55.397Z,97366.97
2018-12-04T10:02:23.837Z,97363.14
2018-12-04T10:04:52.339Z,97368.20
2018-12-04T10:07:20.844Z,97362.95
2018-12-04T10:09:49.363Z,97360.42
2018-12-04T10:12:17.849Z,97358.31
2018-12-04T10:14:46.340Z,97349.45
2018-12-04T10:17:15.031Z,97349.27
2018-12-04T10:19:43.920Z,97351.94
2018-12-04T10:22:16.325Z,97358.20
2018-12-04T10:24:45.754Z,97353.99
2018-12-04T10:27:14.197Z,97359.23
2018-12-04T10:29:43.399Z,97348.11
2018-12-04T10:32:12.300Z,97342.62
2018-12-04T10:34:40.764Z,97348.92
2018-12-04T10:37:09.241Z,97343.48
2018-12-04T10:39:37.721Z,97351.60
2018-12-04T10:42:06.197Z,97348.20
2018-12-04T10:44:34.728Z,97348.19
2018-12-04T10:47:03.216Z,97356.73
2018-12-04T10:49:31.634Z,97352.34
2018-12-04T10:52:00.091Z,97341.08
2018-12-04T10:54:28.594Z,97351.81
2018-12-04T10:56:57.081Z,97346.97
2018-12-04T10:59:25.608Z,97349.71
2018-12-04T11:01:59.696Z,97348.41
2018-12-04T11:04:28.202Z,97349.95
2018-12-04T11:06:56.892Z,97348.41
2018-12-04T11:09:25.381Z,97346.22
2018-12-04T11:11:54.068Z,97344.23
2018-12-04T11:14:22.519Z,97353.25
2018-12-04T11:16:52.020Z,97348.01
2018-12-04T11:19:21.256Z,97351.30
2018-12-04T11:21:49.765Z,97356.59
2018-12-04T11:24:18.915Z,97354.12
2018-12-04T11:26:47.392Z,97355.20
2018-12-04T11:29:15.790Z,97349.89
2018-12-04T11:31:44.437Z,97361.05
2018-12-04T11:34:13.000Z,97238.78
2018-12-04T11:36:41.921Z,97362.75
2018-12-04T11:39:10.424Z,97364.61
2018-12-04T11:41:39.513Z,97367.17
2018-12-04T11:44:08.200Z,97376.34
2018-12-04T11:46:36.668Z,97374.80
2018-12-04T11:49:05.192Z,97375.69
2018-12-04T11:51:34.103Z,97368.73
2018-12-04T11:54:02.520Z,97375.27
2018-12-04T11:56:31.024Z,97373.04
2018-12-04T11:58:59.483Z,97375.27
2018-12-04T12:01:29.649Z,97375.27
2018-12-04T12:03:58.509Z,97373.52
2018-12-04T12:06:27.645Z,97175.77
2018-12-04T12:08:58.840Z,97379.19
2018-12-04T12:11:27.376Z,97387.53
2018-12-04T12:13:57.772Z,97388.84
2018-12-04T12:16:26.232Z,97387.94
2018-12-04T12:18:54.765Z,97390.02
2018-12-04T12:21:23.830Z,97393.83
2018-12-04T12:23:52.302Z,97400.36
2018-12-04T12:26:20.826Z,97404.75
2018-12-04T12:28:49.269Z,97406.91
2018-12-04T12:31:17.742Z,97399.45
2018-12-04T12:33:46.295Z,97404.23
2018-12-04T12:36:14.745Z,97406.00
2018-12-04T12:38:43.334Z,97405.00
2018-12-04T12:41:11.868Z,97405.39
2018-12-04T12:43:40.331Z,97412.34
2018-12-04T12:46:08.764Z,97415.28
2018-12-04T12:48:37.276Z,97418.84
2018-12-04T12:51:05.737Z,97422.05
2018-12-04T12:53:34.206Z,97423.09
2018-12-04T12:56:02.678Z,97429.80
2018-12-04T12:58:31.168Z,97424.20
2018-12-04T13:00:59.778Z,97430.78
2018-12-04T13:03:28.250Z,97433.92
2018-12-04T13:05:56.712Z,97440.81
2018-12-04T13:08:25.178Z,97442.91
2018-12-04T13:10:53.656Z,97440.34
2018-12-04T13:13:22.110Z,97443.89
2018-12-04T13:15:50.567Z,97372.11
2018-12-04T13:18:19.068Z,97459.80
2018-12-04T13:20:47.552Z,97459.93
2018-12-04T13:23:16.149Z,97471.33
2018-12-04T13:25:44.631Z,97484.91
2018-12-04T13:28:13.135Z,97489.48
2018-12-04T13:30:41.589Z,97484.91
2018-12-04T13:33:10.107Z,97492.58
2018-12-04T13:35:38.559Z,97499.97
2018-12-04T13:38:07.028Z,97223.31
2018-12-04T13:40:35.540Z,97501.30
2018-12-04T13:43:04.004Z,97512.52
2018-12-04T13:45:32.489Z,97521.98
2018-12-04T13:48:01.105Z,97527.36
2018-12-04T13:50:30.423Z,97523.92
2018-12-04T13:52:58.866Z,97522.42
2018-12-04T13:55:27.426Z,97533.31
2018-12-04T13:57:57.629Z,97533.19
2018-12-04T14:00:26.150Z,97483.69
2018-12-04T14:02:55.381Z,97545.88
2018-12-04T14:05:24.072Z,97543.45
2018-12-04T14:07:52.543Z,97549.13
2018-12-04T14:10:21.184Z,97548.98
2018-12-04T14:12:49.629Z,97550.60
2018-12-04T14:15:18.132Z,97557.75
2018-12-04T14:17:47.466Z,97563.06
2018-12-04T14:20:16.239Z,97570.54
2018-12-04T14:22:46.916Z,97570.05
2018-12-04T14:25:16.504Z,97567.64
2018-12-04T14:27:49.050Z,97577.05
2018-12-04T14:30:15.616Z,97576.77
2018-12-04T14:32:44.112Z,97593.97
2018-12-04T14:35:12.608Z,97599.51
2018-12-04T14:37:41.199Z,97594.91
2018-12-04T14:40:09.728Z,97597.39
2018-12-04T14:42:38.354Z,97596.40
2018-12-04T14:45:07.219Z,97605.53
2018-12-04T14:47:35.819Z,97598.47
2018-12-04T14:50:05.864Z,97600.95
2018-12-04T14:52:34.466Z,97611.12
2018-12-04T14:55:04.825Z,97611.03
2018-12-04T14:57:33.619Z,97612.03
2018-12-04T15:00:02.529Z,97608.55
2018-12-04T15:02:31.051Z,97612.48
2018-12-04T15:04:59.552Z,97606.74
2018-12-04T15:07:28.113Z,97611.67
2018-12-04T15:09:56.613Z,97612.81
2018-12-04T15:12:25.418Z,97617.72
2018-12-04T15:14:57.368Z,97615.64
2018-12-04T15:17:26.232Z,97624.16
2018-12-04T15:19:55.152Z,97626.23
2018-12-04T15:22:24.024Z,97633.38
2018-12-04T15:24:52.464Z,97641.05
2018-12-04T15:27:21.028Z,97642.05
2018-12-04T15:29:49.628Z,97667.37
2018-12-04T15:32:18.143Z,97659.73
2018-12-04T15:34:46.710Z,97663.39
2018-12-04T15:37:15.212Z,97665.48
2018-12-04T15:39:45.604Z,97670.97
2018-12-04T15:42:14.039Z,97668.37
2018-12-04T15:44:42.685Z,97679.29
2018-12-04T15:47:12.774Z,97681.94
2018-12-04T15:49:41.443Z,97698.30
2018-12-04T15:52:10.077Z,97552.36
2018-12-04T15:54:38.626Z,97702.10
2018-12-04T15:57:07.362Z,97711.11
2018-12-04T15:59:35.865Z,97711.23
2018-12-04T16:02:04.467Z,97712.47
2018-12-04T16:04:32.983Z,97726.31
2018-12-04T16:07:01.449Z,97741.77
2018-12-04T16:09:29.892Z,97751.80
2018-12-04T16:11:58.374Z,97757.73
2018-12-04T16:14:30.146Z,97759.81
2018-12-04T16:16:58.609Z,97767.52
2018-12-04T16:19:27.540Z,97769.17
2018-12-04T16:21:56.011Z,97778.05
2018-12-04T16:24:24.492Z,97783.52
2018-12-04T16:26:53.024Z,97789.42
2018-12-04T16:29:21.554Z,97792.68
2018-12-04T16:31:50.064Z,97795.81
2018-12-04T16:34:18.774Z,97497.64
2018-12-04T16:36:47.494Z,97803.73
2018-12-04T16:39:15.967Z,97803.66
2018-12-04T16:41:44.784Z,97809.81
2018-12-04T16:44:13.268Z,97818.52
2018-12-04T16:46:41.853Z,97822.39
2018-12-04T16:49:10.342Z,97839.41
2018-12-04T16:51:38.847Z,97838.18
2018-12-04T16:54:08.972Z,97837.28
2018-12-04T16:56:37.998Z,97836.13
2018-12-04T16:59:06.500Z,97836.06
2018-12-04T17:01:34.966Z,97845.88
2018-12-04T17:04:03.484Z,97850.66
2018-12-04T17:06:31.968Z,97865.48
2018-12-04T17:09:00.486Z,97865.78
2018-12-04T17:11:29.129Z,97860.76
2018-12-04T17:13:57.693Z,97855.75
2018-12-04T17:16:26.191Z,97858.80
2018-12-04T17:18:54.721Z,97861.64
2018-12-04T17:21:23.245Z,97871.72
2018-12-04T17:23:51.734Z,97883.23
2018-12-04T17:26:20.252Z,97880.83
2018-12-04T17:28:48.890Z,97889.20
2018-12-04T17:31:17.465Z,97882.73
2018-12-04T17:33:45.946Z,97855.18
2018-12-04T17:36:14.475Z,97881.84
2018-12-04T17:38:43.105Z,97890.63
2018-12-04T17:41:11.576Z,97896.01
2018-12-04T17:43:40.456Z,97898.21
2018-12-04T17:46:08.985Z,97903.06
2018-12-04T17:48:38.588Z,97907.92
2018-12-04T17:51:07.250Z,97915.28
2018-12-04T17:53:36.176Z,97918.65
2018-12-04T17:56:04.940Z,97910.39
2018-12-04T17:58:33.491Z,97907.89
2018-12-04T18:01:02.103Z,97923.61
2018-12-04T18:03:30.675Z,97931.08
2018-12-04T18:05:59.272Z,97939.17
2018-12-04T18:08:27.786Z,97953.75
2018-12-04T18:10:56.343Z,97949.20
2018-12-04T18:13:24.962Z,97939.30
2018-12-04T18:15:53.591Z,97976.36
2018-12-04T18:18:22.187Z,97982.70
2018-12-04T18:20:50.789Z,97984.23
2018-12-04T18:23:19.582Z,97976.13
2018-12-04T18:25:48.169Z,97987.56
2018-12-04T18:28:17.429Z,98002.04
2018-12-04T18:30:46.715Z,98001.28
2018-12-04T18:33:15.952Z,98000.84
2018-12-04T18:35:44.469Z,97997.95
2018-12-04T18:38:13.040Z,98003.67
2018-12-04T18:40:41.529Z,98003.70
2018-12-04T18:43:10.129Z,97999.85
2018-12-04T18:45:38.569Z,98002.47
2018-12-04T18:48:07.022Z,98010.31
2018-12-04T18:50:35.548Z,98006.45
2018-12-04T18:53:04.109Z,98007.76
2018-12-04T18:55:33.426Z,98019.48
2018-12-04T18:58:01.988Z,98022.91
2018-12-04T19:00:30.542Z,98024.97
2018-12-04T19:02:59.303Z,98030.30
2018-12-04T19:05:27.889Z,98042.34
2018-12-04T19:07:56.397Z,98040.30
2018-12-04T19:10:25.010Z,98047.72
2018-12-04T19:12:53.951Z,98044.30
2018-12-04T19:15:22.472Z,98045.22
2018-12-04T19:17:51.020Z,98055.20
2018-12-04T19:20:19.665Z,98050.83
2018-12-04T19:22:48.176Z,98056.48
2018-12-04T19:25:16.631Z,98047.42
2018-12-04T19:27:45.145Z,98044.86
2018-12-04T19:30:15.087Z,98043.15
2018-12-04T19:32:43.525Z,98035.81
2018-12-04T19:35:12.084Z,98030.64
2018-12-04T19:37:40.687Z,98029.42
2018-12-04T19:40:09.641Z,98037.70
2018-12-04T19:42:40.342Z,98048.61
2018-12-04T19:45:08.856Z,98056.45
2018-12-04T19:47:37.330Z,98054.35
2018-12-04T19:50:07.317Z,98059.05
2018-12-04T19:52:36.195Z,98049.53
2018-12-04T19:55:04.854Z,98043.52
2018-12-04T19:57:33.537Z,98054.77
2018-12-04T20:00:02.337Z,98069.94
2018-12-04T20:02:30.820Z,97777.58
2018-12-04T20:04:59.485Z,98090.34
2018-12-04T20:07:28.570Z,98085.12
2018-12-04T20:09:59.001Z,98083.84
2018-12-04T20:12:27.685Z,98089.48
2018-12-04T20:14:57.282Z,98092.95
2018-12-04T20:17:25.847Z,98093.38
2018-12-04T20:19:55.555Z,98086.89
2018-12-04T20:22:24.486Z,98089.05
2018-12-04T20:24:53.251Z,98092.51
2018-12-04T20:27:21.842Z,98100.30
2018-12-04T20:29:50.673Z,98108.97
2018-12-04T20:32:19.216Z,98111.57
2018-12-04T20:34:47.736Z,98117.20
2018-12-04T20:37:16.710Z,98124.13
2018-12-04T20:39:45.431Z,98122.39
2018-12-04T20:42:14.239Z,98135.00
2018-12-04T20:44:42.893Z,98133.21
2018-12-04T20:47:11.693Z,98133.69
2018-12-04T20:49:40.349Z,98144.50
2018-12-04T20:52:09.576Z,98134.09
2018-12-04T20:54:38.039Z,98144.92
2018-12-04T20:57:06.562Z,98145.36
2018-12-04T20:59:35.903Z,98141.05
2018-12-04T21:02:04.756Z,98150.12
2018-12-04T21:04:34.514Z,98152.77
2018-12-04T21:07:03.675Z,98151.01
2018-12-04T21:09:32.250Z,98154.45
2018-12-04T21:12:00.937Z,98161.42
2018-12-04T21:14:29.736Z,98160.55
2018-12-04T21:16:59.232Z,98159.70
2018-12-04T21:19:27.807Z,98152.73
2018-12-04T21:21:56.637Z,98157.92
2018-12-04T21:24:33.463Z,98174.41
2018-12-04T21:27:13.149Z,97795.64
2018-12-04T21:29:47.643Z,98166.59
2018-12-04T21:32:21.896Z,98173.11
2018-12-04T21:34:56.090Z,98173.53
2018-12-04T21:37:30.578Z,98186.55
2018-12-04T21:40:05.214Z,98192.16
2018-12-04T21:42:39.280Z,98197.79
2018-12-04T21:48:10.819Z,98206.89
2018-12-04T21:50:39.301Z,98207.73
2018-12-04T21:53:07.813Z,98212.52
2018-12-04T21:55:36.456Z,98222.94
2018-12-04T21:58:04.940Z,98221.18
2018-12-04T22:00:33.408Z,98232.91
2018-12-04T22:03:01.842Z,98222.52
2018-12-04T22:05:30.266Z,98232.92
2018-12-04T22:07:58.710Z,98233.77
2018-12-04T22:10:27.184Z,98237.23
2018-12-04T22:12:58.471Z,98236.37
2018-12-04T22:15:26.877Z,98239.38
2018-12-04T22:17:55.275Z,98248.91
2018-12-04T22:20:23.730Z,98257.12
2018-12-04T22:22:52.289Z,98269.25
2018-12-04T22:25:21.139Z,98272.28
2018-12-04T22:27:50.102Z,98272.31
2018-12-04T22:30:18.656Z,98263.63
2018-12-04T22:32:47.112Z,98274.06
2018-12-04T22:35:15.566Z,98292.27
2018-12-04T22:37:44.024Z,98289.69
2018-12-04T22:40:12.641Z,98294.03
2018-12-04T22:42:41.119Z,98297.45
2018-12-04T22:45:15.211Z,98310.03
2018-12-04T22:47:43.752Z,98310.90
2018-12-04T22:50:12.386Z,98315.20
2018-12-04T22:52:40.861Z,98320.41
2018-12-04T22:55:09.344Z,98321.23
2018-12-04T22:57:37.819Z,98322.53
2018-12-04T23:00:11.215Z,98322.10
2018-12-04T23:02:39.652Z,98325.56
2018-12-04T23:05:08.121Z,98332.09
2018-12-04T23:07:36.607Z,98329.08
2018-12-04T23:10:08.610Z,98336.00
2018-12-04T23:12:37.066Z,98123.89
2018-12-04T23:15:06.047Z,98339.05
2018-12-04T23:17:34.480Z,98334.28
2018-12-04T23:20:02.982Z,98342.98
2018-12-04T23:22:31.405Z,98356.84
2018-12-04T23:25:00.307Z,98355.11
2018-12-04T23:27:29.358Z,98352.94
2018-12-04T23:29:57.808Z,98355.11
2018-12-04T23:32:26.208Z,98362.06
2018-12-04T23:34:54.661Z,98362.06
2018-12-04T23:37:23.122Z,98369.00
2018-12-04T23:39:51.544Z,98369.44
2018-12-04T23:42:20.164Z,98367.25
2018-12-04T23:44:50.328Z,98372.42
2018-12-04T23:47:20.180Z,98384.13
2018-12-04T23:49:50.368Z,98388.00
2018-12-04T23:52:18.838Z,98392.77
2018-12-04T23:54:47.337Z,98394.09
2018-12-04T23:57:15.826Z,98395.36
2018-12-04T23:59:44.240Z,98399.27
